sensor_id;sensor_type;location;lat;lon;timestamp;P1;durP1;ratioP1;P2;durP2;ratioP2
7571;SDS011;3827;49.928;8.548;2023-06-10T00:01:37;6.47;;;5.88;;
7571;SDS011;3827;49.928;8.548;2023-06-10T00:04:04;6.82;;;6.13;;
7571;SDS011;3827;49.928;8.548;2023-06-10T00:06:31;6.32;;;5.82;;
7571;SDS011;3827;49.928;8.548;2023-06-10T00:09:00;6.40;;;5.90;;
7571;SDS011;3827;49.928;8.548;2023-06-10T00:11:29;6.65;;;6.05;;
7571;SDS011;3827;49.928;8.548;2023-06-10T00:13:58;6.88;;;6.28;;
7571;SDS011;3827;49.928;8.548;2023-06-10T00:16:24;7.07;;;6.13;;
7571;SDS011;3827;49.928;8.548;2023-06-10T00:18:51;6.32;;;5.82;;
7571;SDS011;3827;49.928;8.548;2023-06-10T00:21:20;7.35;;;5.90;;
7571;SDS011;3827;49.928;8.548;2023-06-10T00:23:49;6.78;;;6.18;;
7571;SDS011;3827;49.928;8.548;2023-06-10T00:26:16;6.40;;;5.90;;
7571;SDS011;3827;49.928;8.548;2023-06-10T00:28:43;6.10;;;5.60;;
7571;SDS011;3827;49.928;8.548;2023-06-10T00:31:12;6.30;;;5.80;;
7571;SDS011;3827;49.928;8.548;2023-06-10T00:33:39;6.10;;;5.70;;
7571;SDS011;3827;49.928;8.548;2023-06-10T00:36:06;5.90;;;5.50;;
7571;SDS011;3827;49.928;8.548;2023-06-10T00:38:32;7.00;;;6.35;;
7571;SDS011;3827;49.928;8.548;2023-06-10T00:40:59;7.33;;;6.60;;
7571;SDS011;3827;49.928;8.548;2023-06-10T00:43:26;6.27;;;5.67;;
7571;SDS011;3827;49.928;8.548;2023-06-10T00:45:53;6.77;;;6.17;;
7571;SDS011;3827;49.928;8.548;2023-06-10T00:48:21;6.75;;;6.15;;
7571;SDS011;3827;49.928;8.548;2023-06-10T00:50:48;7.45;;;6.75;;
7571;SDS011;3827;49.928;8.548;2023-06-10T00:53:15;7.33;;;6.30;;
7571;SDS011;3827;49.928;8.548;2023-06-10T00:55:43;6.30;;;5.80;;
7571;SDS011;3827;49.928;8.548;2023-06-10T00:58:10;6.43;;;5.93;;
7571;SDS011;3827;49.928;8.548;2023-06-10T01:00:37;6.00;;;5.40;;
7571;SDS011;3827;49.928;8.548;2023-06-10T01:03:04;6.72;;;6.20;;
7571;SDS011;3827;49.928;8.548;2023-06-10T01:05:34;6.25;;;5.75;;
7571;SDS011;3827;49.928;8.548;2023-06-10T01:08:03;6.28;;;5.78;;
7571;SDS011;3827;49.928;8.548;2023-06-10T01:10:38;6.38;;;5.82;;
7571;SDS011;3827;49.928;8.548;2023-06-10T01:13:09;6.57;;;5.97;;
7571;SDS011;3827;49.928;8.548;2023-06-10T01:15:38;6.55;;;5.97;;
7571;SDS011;3827;49.928;8.548;2023-06-10T01:18:05;6.65;;;6.05;;
7571;SDS011;3827;49.928;8.548;2023-06-10T01:20:36;6.85;;;6.25;;
7571;SDS011;3827;49.928;8.548;2023-06-10T01:23:06;6.90;;;6.30;;
7571;SDS011;3827;49.928;8.548;2023-06-10T01:25:37;6.75;;;6.15;;
7571;SDS011;3827;49.928;8.548;2023-06-10T01:28:07;6.82;;;6.22;;
7571;SDS011;3827;49.928;8.548;2023-06-10T01:30:47;6.97;;;5.97;;
7571;SDS011;3827;49.928;8.548;2023-06-10T01:33:22;7.30;;;6.57;;
7571;SDS011;3827;49.928;8.548;2023-06-10T01:35:53;6.63;;;6.13;;
7571;SDS011;3827;49.928;8.548;2023-06-10T01:38:22;6.83;;;6.23;;
7571;SDS011;3827;49.928;8.548;2023-06-10T01:40:51;7.43;;;6.72;;
7571;SDS011;3827;49.928;8.548;2023-06-10T01:43:19;7.68;;;6.93;;
7571;SDS011;3827;49.928;8.548;2023-06-10T01:45:46;7.00;;;6.40;;
7571;SDS011;3827;49.928;8.548;2023-06-10T01:48:14;6.65;;;6.05;;
7571;SDS011;3827;49.928;8.548;2023-06-10T01:50:40;6.20;;;5.72;;
7571;SDS011;3827;49.928;8.548;2023-06-10T01:53:09;7.38;;;6.78;;
7571;SDS011;3827;49.928;8.548;2023-06-10T01:55:37;7.20;;;6.60;;
7571;SDS011;3827;49.928;8.548;2023-06-10T01:58:03;6.55;;;5.95;;
7571;SDS011;3827;49.928;8.548;2023-06-10T02:00:30;6.85;;;6.22;;
7571;SDS011;3827;49.928;8.548;2023-06-10T02:02:57;7.70;;;6.90;;
7571;SDS011;3827;49.928;8.548;2023-06-10T02:05:24;7.50;;;6.80;;
7571;SDS011;3827;49.928;8.548;2023-06-10T02:07:51;7.85;;;6.78;;
7571;SDS011;3827;49.928;8.548;2023-06-10T02:10:18;7.70;;;7.00;;
7571;SDS011;3827;49.928;8.548;2023-06-10T02:12:46;7.43;;;6.75;;
7571;SDS011;3827;49.928;8.548;2023-06-10T02:15:13;7.68;;;6.60;;
7571;SDS011;3827;49.928;8.548;2023-06-10T02:17:39;7.97;;;7.15;;
7571;SDS011;3827;49.928;8.548;2023-06-10T02:20:07;7.85;;;7.15;;
7571;SDS011;3827;49.928;8.548;2023-06-10T02:22:36;7.57;;;6.88;;
7571;SDS011;3827;49.928;8.548;2023-06-10T02:25:03;7.87;;;7.17;;
7571;SDS011;3827;49.928;8.548;2023-06-10T02:27:31;7.20;;;6.60;;
7571;SDS011;3827;49.928;8.548;2023-06-10T02:29:59;7.80;;;7.00;;
7571;SDS011;3827;49.928;8.548;2023-06-10T02:32:26;8.07;;;7.37;;
7571;SDS011;3827;49.928;8.548;2023-06-10T02:34:53;8.15;;;7.32;;
7571;SDS011;3827;49.928;8.548;2023-06-10T02:37:20;8.38;;;7.57;;
7571;SDS011;3827;49.928;8.548;2023-06-10T02:39:47;7.40;;;6.80;;
7571;SDS011;3827;49.928;8.548;2023-06-10T02:42:14;7.80;;;7.10;;
7571;SDS011;3827;49.928;8.548;2023-06-10T02:44:40;7.57;;;6.78;;
7571;SDS011;3827;49.928;8.548;2023-06-10T02:47:08;8.23;;;7.45;;
7571;SDS011;3827;49.928;8.548;2023-06-10T02:49:35;8.48;;;7.57;;
7571;SDS011;3827;49.928;8.548;2023-06-10T02:52:02;9.07;;;7.93;;
7571;SDS011;3827;49.928;8.548;2023-06-10T02:54:29;7.40;;;6.70;;
7571;SDS011;3827;49.928;8.548;2023-06-10T02:56:56;8.20;;;7.40;;
7571;SDS011;3827;49.928;8.548;2023-06-10T02:59:23;7.60;;;6.93;;
7571;SDS011;3827;49.928;8.548;2023-06-10T03:01:52;8.27;;;7.47;;
7571;SDS011;3827;49.928;8.548;2023-06-10T03:04:20;7.90;;;7.20;;
7571;SDS011;3827;49.928;8.548;2023-06-10T03:06:48;8.15;;;7.35;;
7571;SDS011;3827;49.928;8.548;2023-06-10T03:09:15;7.97;;;7.20;;
7571;SDS011;3827;49.928;8.548;2023-06-10T03:11:42;7.70;;;7.10;;
7571;SDS011;3827;49.928;8.548;2023-06-10T03:14:08;7.80;;;7.10;;
7571;SDS011;3827;49.928;8.548;2023-06-10T03:16:35;8.73;;;7.88;;
7571;SDS011;3827;49.928;8.548;2023-06-10T03:19:05;8.20;;;7.45;;
7571;SDS011;3827;49.928;8.548;2023-06-10T03:21:33;8.23;;;7.45;;
7571;SDS011;3827;49.928;8.548;2023-06-10T03:24:02;8.33;;;7.60;;
7571;SDS011;3827;49.928;8.548;2023-06-10T03:26:29;7.70;;;7.00;;
7571;SDS011;3827;49.928;8.548;2023-06-10T03:28:56;8.20;;;7.53;;
7571;SDS011;3827;49.928;8.548;2023-06-10T03:31:22;8.13;;;7.43;;
7571;SDS011;3827;49.928;8.548;2023-06-10T03:33:50;7.80;;;7.10;;
7571;SDS011;3827;49.928;8.548;2023-06-10T03:36:17;8.05;;;7.28;;
7571;SDS011;3827;49.928;8.548;2023-06-10T03:38:45;7.35;;;6.75;;
7571;SDS011;3827;49.928;8.548;2023-06-10T03:41:12;8.20;;;7.38;;
7571;SDS011;3827;49.928;8.548;2023-06-10T03:43:40;7.97;;;7.28;;
7571;SDS011;3827;49.928;8.548;2023-06-10T03:46:07;7.75;;;7.05;;
7571;SDS011;3827;49.928;8.548;2023-06-10T03:48:33;7.10;;;6.50;;
7571;SDS011;3827;49.928;8.548;2023-06-10T03:51:01;8.40;;;7.55;;
7571;SDS011;3827;49.928;8.548;2023-06-10T03:53:28;7.65;;;6.95;;
7571;SDS011;3827;49.928;8.548;2023-06-10T03:55:56;7.63;;;6.93;;
7571;SDS011;3827;49.928;8.548;2023-06-10T03:58:23;7.50;;;6.90;;
7571;SDS011;3827;49.928;8.548;2023-06-10T04:00:50;7.63;;;6.95;;
7571;SDS011;3827;49.928;8.548;2023-06-10T04:03:18;8.57;;;7.10;;
7571;SDS011;3827;49.928;8.548;2023-06-10T04:05:46;7.40;;;6.57;;
7571;SDS011;3827;49.928;8.548;2023-06-10T04:08:13;7.72;;;7.05;;
7571;SDS011;3827;49.928;8.548;2023-06-10T04:10:42;7.80;;;7.00;;
7571;SDS011;3827;49.928;8.548;2023-06-10T04:13:10;8.30;;;7.57;;
7571;SDS011;3827;49.928;8.548;2023-06-10T04:15:37;7.78;;;7.07;;
7571;SDS011;3827;49.928;8.548;2023-06-10T04:18:04;7.18;;;6.50;;
7571;SDS011;3827;49.928;8.548;2023-06-10T04:20:31;7.90;;;7.10;;
7571;SDS011;3827;49.928;8.548;2023-06-10T04:22:58;7.50;;;6.80;;
7571;SDS011;3827;49.928;8.548;2023-06-10T04:25:25;7.88;;;7.07;;
7571;SDS011;3827;49.928;8.548;2023-06-10T04:27:52;7.43;;;6.75;;
7571;SDS011;3827;49.928;8.548;2023-06-10T04:30:20;8.23;;;7.43;;
7571;SDS011;3827;49.928;8.548;2023-06-10T04:32:47;6.82;;;6.13;;
7571;SDS011;3827;49.928;8.548;2023-06-10T04:35:14;7.13;;;6.43;;
7571;SDS011;3827;49.928;8.548;2023-06-10T04:37:41;6.90;;;6.30;;
7571;SDS011;3827;49.928;8.548;2023-06-10T04:40:08;7.75;;;7.05;;
7571;SDS011;3827;49.928;8.548;2023-06-10T04:42:36;7.43;;;6.65;;
7571;SDS011;3827;49.928;8.548;2023-06-10T04:45:03;7.40;;;6.70;;
7571;SDS011;3827;49.928;8.548;2023-06-10T04:47:32;7.35;;;6.65;;
7571;SDS011;3827;49.928;8.548;2023-06-10T04:49:59;7.00;;;6.30;;
7571;SDS011;3827;49.928;8.548;2023-06-10T04:52:26;7.43;;;6.68;;
7571;SDS011;3827;49.928;8.548;2023-06-10T04:54:52;6.88;;;6.28;;
7571;SDS011;3827;49.928;8.548;2023-06-10T04:57:19;6.90;;;6.30;;
7571;SDS011;3827;49.928;8.548;2023-06-10T04:59:46;6.72;;;6.13;;
7571;SDS011;3827;49.928;8.548;2023-06-10T05:02:13;6.60;;;6.07;;
7571;SDS011;3827;49.928;8.548;2023-06-10T05:04:41;7.03;;;6.43;;
7571;SDS011;3827;49.928;8.548;2023-06-10T05:07:08;6.95;;;6.28;;
7571;SDS011;3827;49.928;8.548;2023-06-10T05:09:35;6.68;;;6.10;;
7571;SDS011;3827;49.928;8.548;2023-06-10T05:12:02;6.10;;;5.60;;
7571;SDS011;3827;49.928;8.548;2023-06-10T05:14:29;6.53;;;5.90;;
7571;SDS011;3827;49.928;8.548;2023-06-10T05:16:56;6.93;;;6.22;;
7571;SDS011;3827;49.928;8.548;2023-06-10T05:19:23;6.60;;;6.00;;
7571;SDS011;3827;49.928;8.548;2023-06-10T05:21:51;6.15;;;5.65;;
7571;SDS011;3827;49.928;8.548;2023-06-10T05:24:18;6.50;;;5.90;;
7571;SDS011;3827;49.928;8.548;2023-06-10T05:26:46;6.15;;;5.65;;
7571;SDS011;3827;49.928;8.548;2023-06-10T05:29:13;6.32;;;5.82;;
7571;SDS011;3827;49.928;8.548;2023-06-10T05:31:41;6.40;;;5.90;;
7571;SDS011;3827;49.928;8.548;2023-06-10T05:34:08;5.95;;;5.45;;
7571;SDS011;3827;49.928;8.548;2023-06-10T05:36:34;6.25;;;5.68;;
7571;SDS011;3827;49.928;8.548;2023-06-10T05:39:02;6.20;;;5.65;;
7571;SDS011;3827;49.928;8.548;2023-06-10T05:41:29;7.28;;;5.93;;
7571;SDS011;3827;49.928;8.548;2023-06-10T05:43:56;6.18;;;5.68;;
7571;SDS011;3827;49.928;8.548;2023-06-10T05:46:23;6.10;;;5.60;;
7571;SDS011;3827;49.928;8.548;2023-06-10T05:48:50;5.68;;;5.18;;
7571;SDS011;3827;49.928;8.548;2023-06-10T05:51:17;6.60;;;5.57;;
7571;SDS011;3827;49.928;8.548;2023-06-10T05:53:43;6.82;;;5.35;;
7571;SDS011;3827;49.928;8.548;2023-06-10T05:56:12;5.57;;;5.03;;
7571;SDS011;3827;49.928;8.548;2023-06-10T05:58:39;5.53;;;5.03;;
7571;SDS011;3827;49.928;8.548;2023-06-10T06:01:06;6.13;;;5.53;;
7571;SDS011;3827;49.928;8.548;2023-06-10T06:03:33;7.38;;;5.32;;
7571;SDS011;3827;49.928;8.548;2023-06-10T06:06:00;5.50;;;5.00;;
7571;SDS011;3827;49.928;8.548;2023-06-10T06:08:26;5.93;;;5.28;;
7571;SDS011;3827;49.928;8.548;2023-06-10T06:10:53;5.28;;;4.78;;
7571;SDS011;3827;49.928;8.548;2023-06-10T06:13:21;5.05;;;4.65;;
7571;SDS011;3827;49.928;8.548;2023-06-10T06:15:48;5.10;;;4.60;;
7571;SDS011;3827;49.928;8.548;2023-06-10T06:18:15;5.72;;;5.20;;
7571;SDS011;3827;49.928;8.548;2023-06-10T06:20:43;5.47;;;4.95;;
7571;SDS011;3827;49.928;8.548;2023-06-10T06:23:10;6.55;;;5.30;;
7571;SDS011;3827;49.928;8.548;2023-06-10T06:25:37;5.88;;;5.20;;
7571;SDS011;3827;49.928;8.548;2023-06-10T06:28:04;5.70;;;5.05;;
7571;SDS011;3827;49.928;8.548;2023-06-10T06:30:33;5.22;;;4.80;;
7571;SDS011;3827;49.928;8.548;2023-06-10T06:33:00;5.47;;;4.97;;
7571;SDS011;3827;49.928;8.548;2023-06-10T06:35:26;4.95;;;4.55;;
7571;SDS011;3827;49.928;8.548;2023-06-10T06:37:53;5.38;;;4.97;;
7571;SDS011;3827;49.928;8.548;2023-06-10T06:40:20;5.13;;;4.63;;
7571;SDS011;3827;49.928;8.548;2023-06-10T06:42:47;4.97;;;4.57;;
7571;SDS011;3827;49.928;8.548;2023-06-10T06:45:14;5.03;;;4.63;;
7571;SDS011;3827;49.928;8.548;2023-06-10T06:47:42;4.80;;;4.37;;
7571;SDS011;3827;49.928;8.548;2023-06-10T06:50:09;5.40;;;4.90;;
7571;SDS011;3827;49.928;8.548;2023-06-10T06:52:36;5.60;;;5.10;;
7571;SDS011;3827;49.928;8.548;2023-06-10T06:55:03;5.72;;;4.97;;
7571;SDS011;3827;49.928;8.548;2023-06-10T06:57:31;5.63;;;4.70;;
7571;SDS011;3827;49.928;8.548;2023-06-10T06:59:58;5.88;;;4.40;;
7571;SDS011;3827;49.928;8.548;2023-06-10T07:02:25;5.72;;;4.57;;
7571;SDS011;3827;49.928;8.548;2023-06-10T07:04:53;4.82;;;4.35;;
7571;SDS011;3827;49.928;8.548;2023-06-10T07:07:21;4.80;;;4.40;;
7571;SDS011;3827;49.928;8.548;2023-06-10T07:09:48;4.72;;;4.32;;
7571;SDS011;3827;49.928;8.548;2023-06-10T07:12:15;4.85;;;4.38;;
7571;SDS011;3827;49.928;8.548;2023-06-10T07:14:42;5.43;;;4.93;;
7571;SDS011;3827;49.928;8.548;2023-06-10T07:17:09;5.20;;;4.50;;
7571;SDS011;3827;49.928;8.548;2023-06-10T07:19:36;5.20;;;4.72;;
7571;SDS011;3827;49.928;8.548;2023-06-10T07:22:05;5.28;;;4.78;;
7571;SDS011;3827;49.928;8.548;2023-06-10T07:24:32;5.10;;;4.60;;
7571;SDS011;3827;49.928;8.548;2023-06-10T07:26:58;5.20;;;4.80;;
7571;SDS011;3827;49.928;8.548;2023-06-10T07:29:25;5.10;;;4.70;;
7571;SDS011;3827;49.928;8.548;2023-06-10T07:31:52;5.10;;;4.70;;
7571;SDS011;3827;49.928;8.548;2023-06-10T07:34:19;5.05;;;4.57;;
7571;SDS011;3827;49.928;8.548;2023-06-10T07:36:46;5.07;;;4.57;;
7571;SDS011;3827;49.928;8.548;2023-06-10T07:39:14;4.85;;;4.45;;
7571;SDS011;3827;49.928;8.548;2023-06-10T07:41:41;4.93;;;4.53;;
7571;SDS011;3827;49.928;8.548;2023-06-10T07:44:08;4.95;;;4.50;;
7571;SDS011;3827;49.928;8.548;2023-06-10T07:46:34;5.18;;;4.78;;
7571;SDS011;3827;49.928;8.548;2023-06-10T07:49:01;5.03;;;4.55;;
7571;SDS011;3827;49.928;8.548;2023-06-10T07:51:28;5.13;;;4.60;;
7571;SDS011;3827;49.928;8.548;2023-06-10T07:53:55;5.15;;;4.75;;
7571;SDS011;3827;49.928;8.548;2023-06-10T07:56:23;4.60;;;4.20;;
7571;SDS011;3827;49.928;8.548;2023-06-10T07:58:51;5.05;;;4.57;;
7571;SDS011;3827;49.928;8.548;2023-06-10T08:01:18;5.00;;;4.50;;
7571;SDS011;3827;49.928;8.548;2023-06-10T08:03:45;5.43;;;4.80;;
7571;SDS011;3827;49.928;8.548;2023-06-10T08:06:11;4.88;;;4.47;;
7571;SDS011;3827;49.928;8.548;2023-06-10T08:08:39;5.97;;;4.83;;
7571;SDS011;3827;49.928;8.548;2023-06-10T08:11:08;5.27;;;4.57;;
7571;SDS011;3827;49.928;8.548;2023-06-10T08:13:36;5.53;;;5.03;;
7571;SDS011;3827;49.928;8.548;2023-06-10T08:16:03;5.00;;;4.50;;
7571;SDS011;3827;49.928;8.548;2023-06-10T08:18:30;6.25;;;4.80;;
7571;SDS011;3827;49.928;8.548;2023-06-10T08:20:57;6.45;;;4.95;;
7571;SDS011;3827;49.928;8.548;2023-06-10T08:23:24;5.10;;;4.60;;
7571;SDS011;3827;49.928;8.548;2023-06-10T08:25:51;5.35;;;4.43;;
7571;SDS011;3827;49.928;8.548;2023-06-10T08:28:18;4.90;;;4.50;;
7571;SDS011;3827;49.928;8.548;2023-06-10T08:30:46;5.20;;;4.70;;
7571;SDS011;3827;49.928;8.548;2023-06-10T08:33:12;5.35;;;4.85;;
7571;SDS011;3827;49.928;8.548;2023-06-10T08:35:39;7.13;;;4.90;;
7571;SDS011;3827;49.928;8.548;2023-06-10T08:38:06;5.35;;;4.65;;
7571;SDS011;3827;49.928;8.548;2023-06-10T08:40:33;5.00;;;4.60;;
7571;SDS011;3827;49.928;8.548;2023-06-10T08:43:00;5.32;;;4.82;;
7571;SDS011;3827;49.928;8.548;2023-06-10T08:45:31;5.00;;;4.60;;
7571;SDS011;3827;49.928;8.548;2023-06-10T08:48:02;5.25;;;4.70;;
7571;SDS011;3827;49.928;8.548;2023-06-10T08:50:31;5.15;;;4.70;;
7571;SDS011;3827;49.928;8.548;2023-06-10T08:53:00;5.45;;;4.65;;
7571;SDS011;3827;49.928;8.548;2023-06-10T08:55:30;5.00;;;4.60;;
7571;SDS011;3827;49.928;8.548;2023-06-10T08:57:59;4.93;;;4.43;;
7571;SDS011;3827;49.928;8.548;2023-06-10T09:00:26;5.33;;;4.63;;
7571;SDS011;3827;49.928;8.548;2023-06-10T09:02:54;4.93;;;4.43;;
7571;SDS011;3827;49.928;8.548;2023-06-10T09:05:23;4.93;;;4.50;;
7571;SDS011;3827;49.928;8.548;2023-06-10T09:07:50;4.87;;;4.47;;
7571;SDS011;3827;49.928;8.548;2023-06-10T09:10:19;5.22;;;4.72;;
7571;SDS011;3827;49.928;8.548;2023-06-10T09:12:46;5.45;;;4.75;;
7571;SDS011;3827;49.928;8.548;2023-06-10T09:15:12;5.78;;;4.72;;
7571;SDS011;3827;49.928;8.548;2023-06-10T09:17:42;5.07;;;4.47;;
7571;SDS011;3827;49.928;8.548;2023-06-10T09:20:10;5.97;;;4.43;;
7571;SDS011;3827;49.928;8.548;2023-06-10T09:22:38;4.65;;;4.00;;
7571;SDS011;3827;49.928;8.548;2023-06-10T09:25:07;5.05;;;4.65;;
7571;SDS011;3827;49.928;8.548;2023-06-10T09:27:43;7.38;;;4.25;;
7571;SDS011;3827;49.928;8.548;2023-06-10T09:30:23;4.65;;;4.30;;
7571;SDS011;3827;49.928;8.548;2023-06-10T09:32:52;4.53;;;4.13;;
7571;SDS011;3827;49.928;8.548;2023-06-10T09:35:21;4.32;;;4.00;;
7571;SDS011;3827;49.928;8.548;2023-06-10T09:37:51;4.53;;;4.13;;
7571;SDS011;3827;49.928;8.548;2023-06-10T09:40:18;4.25;;;3.95;;
7571;SDS011;3827;49.928;8.548;2023-06-10T09:42:44;4.95;;;4.10;;
7571;SDS011;3827;49.928;8.548;2023-06-10T09:45:14;4.95;;;4.53;;
7571;SDS011;3827;49.928;8.548;2023-06-10T09:47:41;4.57;;;4.00;;
7571;SDS011;3827;49.928;8.548;2023-06-10T09:50:08;4.90;;;4.13;;
7571;SDS011;3827;49.928;8.548;2023-06-10T09:52:36;5.05;;;4.20;;
7571;SDS011;3827;49.928;8.548;2023-06-10T09:55:07;5.10;;;4.68;;
7571;SDS011;3827;49.928;8.548;2023-06-10T09:57:35;5.37;;;4.30;;
7571;SDS011;3827;49.928;8.548;2023-06-10T10:00:04;4.68;;;4.38;;
7571;SDS011;3827;49.928;8.548;2023-06-10T10:02:33;4.60;;;4.20;;
7571;SDS011;3827;49.928;8.548;2023-06-10T10:05:12;4.37;;;3.97;;
7571;SDS011;3827;49.928;8.548;2023-06-10T10:07:40;4.63;;;4.15;;
7571;SDS011;3827;49.928;8.548;2023-06-10T10:10:08;4.75;;;4.05;;
7571;SDS011;3827;49.928;8.548;2023-06-10T10:12:36;5.15;;;4.03;;
7571;SDS011;3827;49.928;8.548;2023-06-10T10:15:05;4.73;;;4.30;;
7571;SDS011;3827;49.928;8.548;2023-06-10T10:17:34;4.07;;;3.67;;
7571;SDS011;3827;49.928;8.548;2023-06-10T10:20:03;4.78;;;4.38;;
7571;SDS011;3827;49.928;8.548;2023-06-10T10:22:33;5.35;;;4.85;;
7571;SDS011;3827;49.928;8.548;2023-06-10T10:25:05;4.25;;;3.85;;
7571;SDS011;3827;49.928;8.548;2023-06-10T10:27:40;4.33;;;4.03;;
7571;SDS011;3827;49.928;8.548;2023-06-10T10:30:11;4.43;;;4.00;;
7571;SDS011;3827;49.928;8.548;2023-06-10T10:32:43;4.55;;;4.15;;
7571;SDS011;3827;49.928;8.548;2023-06-10T10:35:19;4.22;;;3.83;;
7571;SDS011;3827;49.928;8.548;2023-06-10T10:37:48;4.10;;;3.80;;
7571;SDS011;3827;49.928;8.548;2023-06-10T10:40:18;4.03;;;3.72;;
7571;SDS011;3827;49.928;8.548;2023-06-10T10:42:46;4.57;;;4.10;;
7571;SDS011;3827;49.928;8.548;2023-06-10T10:45:14;5.37;;;4.10;;
7571;SDS011;3827;49.928;8.548;2023-06-10T10:47:41;4.65;;;4.15;;
7571;SDS011;3827;49.928;8.548;2023-06-10T10:50:14;4.15;;;3.75;;
7571;SDS011;3827;49.928;8.548;2023-06-10T10:52:52;5.50;;;3.78;;
7571;SDS011;3827;49.928;8.548;2023-06-10T10:55:22;4.07;;;3.65;;
7571;SDS011;3827;49.928;8.548;2023-06-10T10:57:58;4.20;;;3.90;;
7571;SDS011;3827;49.928;8.548;2023-06-10T11:00:29;4.30;;;4.00;;
7571;SDS011;3827;49.928;8.548;2023-06-10T11:03:00;4.15;;;3.78;;
7571;SDS011;3827;49.928;8.548;2023-06-10T11:05:35;4.97;;;3.97;;
7571;SDS011;3827;49.928;8.548;2023-06-10T11:08:04;4.13;;;3.65;;
7571;SDS011;3827;49.928;8.548;2023-06-10T11:10:33;4.28;;;3.60;;
7571;SDS011;3827;49.928;8.548;2023-06-10T11:13:02;3.70;;;3.45;;
7571;SDS011;3827;49.928;8.548;2023-06-10T11:15:32;3.88;;;3.47;;
7571;SDS011;3827;49.928;8.548;2023-06-10T11:18:10;4.60;;;3.70;;
7571;SDS011;3827;49.928;8.548;2023-06-10T11:20:58;4.35;;;3.35;;
7571;SDS011;3827;49.928;8.548;2023-06-10T11:23:38;3.50;;;3.20;;
7571;SDS011;3827;49.928;8.548;2023-06-10T11:26:11;3.53;;;3.23;;
7571;SDS011;3827;49.928;8.548;2023-06-10T11:29:00;3.13;;;2.83;;
7571;SDS011;3827;49.928;8.548;2023-06-10T11:31:33;3.83;;;2.90;;
7571;SDS011;3827;49.928;8.548;2023-06-10T11:34:04;3.10;;;2.60;;
7571;SDS011;3827;49.928;8.548;2023-06-10T11:36:32;2.80;;;2.60;;
7571;SDS011;3827;49.928;8.548;2023-06-10T11:39:00;3.15;;;2.90;;
7571;SDS011;3827;49.928;8.548;2023-06-10T11:41:30;3.03;;;2.75;;
7571;SDS011;3827;49.928;8.548;2023-06-10T11:44:00;3.05;;;2.70;;
7571;SDS011;3827;49.928;8.548;2023-06-10T11:46:28;3.90;;;2.40;;
7571;SDS011;3827;49.928;8.548;2023-06-10T11:48:56;2.40;;;2.20;;
7571;SDS011;3827;49.928;8.548;2023-06-10T11:51:24;2.58;;;2.38;;
7571;SDS011;3827;49.928;8.548;2023-06-10T11:53:54;3.40;;;2.30;;
7571;SDS011;3827;49.928;8.548;2023-06-10T11:56:21;2.60;;;2.30;;
7571;SDS011;3827;49.928;8.548;2023-06-10T11:58:53;2.60;;;2.40;;
7571;SDS011;3827;49.928;8.548;2023-06-10T12:01:22;2.55;;;2.35;;
7571;SDS011;3827;49.928;8.548;2023-06-10T12:03:56;2.58;;;2.38;;
7571;SDS011;3827;49.928;8.548;2023-06-10T12:06:24;2.60;;;2.40;;
7571;SDS011;3827;49.928;8.548;2023-06-10T12:08:50;2.63;;;2.42;;
7571;SDS011;3827;49.928;8.548;2023-06-10T12:11:17;3.50;;;2.50;;
7571;SDS011;3827;49.928;8.548;2023-06-10T12:13:45;3.30;;;2.40;;
7571;SDS011;3827;49.928;8.548;2023-06-10T12:16:16;2.53;;;2.40;;
7571;SDS011;3827;49.928;8.548;2023-06-10T12:18:44;2.20;;;2.10;;
7571;SDS011;3827;49.928;8.548;2023-06-10T12:21:17;3.35;;;2.30;;
7571;SDS011;3827;49.928;8.548;2023-06-10T12:24:04;2.70;;;2.50;;
7571;SDS011;3827;49.928;8.548;2023-06-10T12:26:36;2.70;;;2.50;;
7571;SDS011;3827;49.928;8.548;2023-06-10T12:29:15;2.60;;;2.10;;
7571;SDS011;3827;49.928;8.548;2023-06-10T12:31:58;2.90;;;2.50;;
7571;SDS011;3827;49.928;8.548;2023-06-10T12:34:36;2.60;;;2.40;;
7571;SDS011;3827;49.928;8.548;2023-06-10T12:37:04;2.50;;;2.30;;
7571;SDS011;3827;49.928;8.548;2023-06-10T12:39:32;2.55;;;2.22;;
7571;SDS011;3827;49.928;8.548;2023-06-10T12:42:00;2.63;;;2.42;;
7571;SDS011;3827;49.928;8.548;2023-06-10T12:44:28;2.65;;;2.45;;
7571;SDS011;3827;49.928;8.548;2023-06-10T12:47:01;2.40;;;2.30;;
7571;SDS011;3827;49.928;8.548;2023-06-10T12:49:33;2.65;;;2.45;;
7571;SDS011;3827;49.928;8.548;2023-06-10T12:52:00;3.08;;;2.80;;
7571;SDS011;3827;49.928;8.548;2023-06-10T12:54:27;2.67;;;2.47;;
7571;SDS011;3827;49.928;8.548;2023-06-10T12:56:54;2.67;;;2.45;;
7571;SDS011;3827;49.928;8.548;2023-06-10T12:59:20;3.07;;;2.40;;
7571;SDS011;3827;49.928;8.548;2023-06-10T13:01:49;2.90;;;2.70;;
7571;SDS011;3827;49.928;8.548;2023-06-10T13:04:18;2.80;;;2.55;;
7571;SDS011;3827;49.928;8.548;2023-06-10T13:06:46;3.13;;;2.72;;
7571;SDS011;3827;49.928;8.548;2023-06-10T13:09:14;2.77;;;2.57;;
7571;SDS011;3827;49.928;8.548;2023-06-10T13:11:41;2.90;;;2.70;;
7571;SDS011;3827;49.928;8.548;2023-06-10T13:14:09;2.70;;;2.50;;
7571;SDS011;3827;49.928;8.548;2023-06-10T13:16:37;2.97;;;2.78;;
7571;SDS011;3827;49.928;8.548;2023-06-10T13:19:04;2.80;;;2.60;;
7571;SDS011;3827;49.928;8.548;2023-06-10T13:21:33;2.90;;;2.70;;
7571;SDS011;3827;49.928;8.548;2023-06-10T13:24:00;2.78;;;2.58;;
7571;SDS011;3827;49.928;8.548;2023-06-10T13:26:28;2.92;;;2.65;;
7571;SDS011;3827;49.928;8.548;2023-06-10T13:28:55;2.80;;;2.60;;
7571;SDS011;3827;49.928;8.548;2023-06-10T13:31:22;3.53;;;2.83;;
7571;SDS011;3827;49.928;8.548;2023-06-10T13:33:49;3.00;;;2.80;;
7571;SDS011;3827;49.928;8.548;2023-06-10T13:36:16;3.00;;;2.80;;
7571;SDS011;3827;49.928;8.548;2023-06-10T13:38:44;2.90;;;2.70;;
7571;SDS011;3827;49.928;8.548;2023-06-10T13:41:12;2.75;;;2.55;;
7571;SDS011;3827;49.928;8.548;2023-06-10T13:43:39;3.17;;;2.88;;
7571;SDS011;3827;49.928;8.548;2023-06-10T13:46:06;3.00;;;2.80;;
7571;SDS011;3827;49.928;8.548;2023-06-10T13:48:33;2.97;;;2.78;;
7571;SDS011;3827;49.928;8.548;2023-06-10T13:51:00;3.33;;;2.80;;
7571;SDS011;3827;49.928;8.548;2023-06-10T13:53:27;3.08;;;2.85;;
7571;SDS011;3827;49.928;8.548;2023-06-10T13:55:55;3.10;;;2.90;;
7571;SDS011;3827;49.928;8.548;2023-06-10T13:58:22;3.38;;;3.08;;
7571;SDS011;3827;49.928;8.548;2023-06-10T14:00:49;3.47;;;3.17;;
7571;SDS011;3827;49.928;8.548;2023-06-10T14:03:15;3.22;;;3.03;;
7571;SDS011;3827;49.928;8.548;2023-06-10T14:05:42;5.18;;;3.55;;
7571;SDS011;3827;49.928;8.548;2023-06-10T14:08:09;3.90;;;3.60;;
7571;SDS011;3827;49.928;8.548;2023-06-10T14:10:36;3.35;;;3.13;;
7571;SDS011;3827;49.928;8.548;2023-06-10T14:13:05;3.67;;;3.38;;
7571;SDS011;3827;49.928;8.548;2023-06-10T14:15:32;4.38;;;3.20;;
7571;SDS011;3827;49.928;8.548;2023-06-10T14:17:58;3.97;;;3.38;;
7571;SDS011;3827;49.928;8.548;2023-06-10T14:20:25;3.92;;;3.20;;
7571;SDS011;3827;49.928;8.548;2023-06-10T14:22:56;3.33;;;3.00;;
7571;SDS011;3827;49.928;8.548;2023-06-10T14:25:23;4.47;;;2.97;;
7571;SDS011;3827;49.928;8.548;2023-06-10T14:27:50;3.00;;;2.80;;
7571;SDS011;3827;49.928;8.548;2023-06-10T14:30:18;3.10;;;2.88;;
7571;SDS011;3827;49.928;8.548;2023-06-10T14:32:45;3.67;;;3.38;;
7571;SDS011;3827;49.928;8.548;2023-06-10T14:35:11;3.60;;;3.30;;
7571;SDS011;3827;49.928;8.548;2023-06-10T14:37:38;3.50;;;3.05;;
7571;SDS011;3827;49.928;8.548;2023-06-10T14:40:05;3.40;;;3.20;;
7571;SDS011;3827;49.928;8.548;2023-06-10T14:42:33;3.25;;;3.00;;
7571;SDS011;3827;49.928;8.548;2023-06-10T14:45:00;3.53;;;3.13;;
7571;SDS011;3827;49.928;8.548;2023-06-10T14:47:28;3.70;;;3.40;;
7571;SDS011;3827;49.928;8.548;2023-06-10T14:49:55;3.45;;;3.20;;
7571;SDS011;3827;49.928;8.548;2023-06-10T14:52:22;3.42;;;3.15;;
7571;SDS011;3827;49.928;8.548;2023-06-10T14:54:49;3.58;;;3.20;;
7571;SDS011;3827;49.928;8.548;2023-06-10T14:57:16;3.85;;;3.55;;
7571;SDS011;3827;49.928;8.548;2023-06-10T14:59:42;3.35;;;3.15;;
7571;SDS011;3827;49.928;8.548;2023-06-10T15:02:09;3.17;;;2.97;;
7571;SDS011;3827;49.928;8.548;2023-06-10T15:04:37;3.63;;;3.40;;
7571;SDS011;3827;49.928;8.548;2023-06-10T15:07:04;4.38;;;3.45;;
7571;SDS011;3827;49.928;8.548;2023-06-10T15:09:32;3.42;;;3.13;;
7571;SDS011;3827;49.928;8.548;2023-06-10T15:11:58;3.70;;;3.40;;
7571;SDS011;3827;49.928;8.548;2023-06-10T15:14:25;3.40;;;3.10;;
7571;SDS011;3827;49.928;8.548;2023-06-10T15:16:52;4.80;;;2.90;;
7571;SDS011;3827;49.928;8.548;2023-06-10T15:19:20;3.40;;;3.10;;
7571;SDS011;3827;49.928;8.548;2023-06-10T15:21:48;3.70;;;3.40;;